Terminal Aerodrome Forecast
Issued by NWS

Home | Current Version | Previous Version | Text Only | Print | Product List | Glossary On
Versions: 1 2 3 4 5 6 7 8 9 10 11 12 13 14 15 16 17 18 19 20 21
730
FTAK31 PAJN 100543
TAFAKT
TAF
PAKT 100543Z 1006/1106 12012KT P6SM VCSH BKN060 OVC100
      WS020/15040KT
     FM100900 14015G25KT 4SM -RA BR SCT025 OVC050 WS020/15040KT
     FM101500 16012G20KT P6SM -SHRA SCT025 BKN040 OVC060
     FM102000 16010G15KT 6SM -RA BKN025 OVC040
      AMD LTD TO CLD VIS AND WIND 1006/1015=

USA.gov is the U.S. government's official web portal to all federal, state and local government web resources and services.